CDT,Max TemperatureF,Mean TemperatureF,Min TemperatureF,Max Dew PointF,MeanDew PointF,Min DewpointF,Max Humidity, Mean Humidity, Min Humidity, Max Sea Level PressureIn, Mean Sea Level PressureIn, Min Sea Level PressureIn, Max VisibilityMiles, Mean VisibilityMiles, Min VisibilityMiles, Max Wind SpeedMPH, Mean Wind SpeedMPH, Max Gust SpeedMPH,PrecipitationIn, CloudCover, Events, WindDirDegrees
2013-4-1,32,24,17,19,15,12,85,70,53,30.30,30.26,30.17,10,10,10,18,12,24,0.00,2,,337
2013-4-2,37,28,19,24,20,17,92,74,57,30.33,30.30,30.26,10,10,10,13,2,,0.00,1,,18
2013-4-3,55,40,24,32,26,18,84,61,39,30.34,30.19,30.01,10,10,10,28,10,34,0.00,0,,186
2013-4-4,45,36,27,32,28,21,81,67,52,30.21,30.12,30.01,10,10,10,26,17,34,0.00,3,,327
2013-4-5,45,35,25,32,26,21,91,71,47,30.22,30.03,29.71,10,10,10,24,10,34,0.00,5,,116
2013-4-6,52,42,32,41,36,30,93,77,65,29.82,29.62,29.48,10,9,3,22,13,28,0.02,6,Rain,314
2013-4-7,48,38,29,42,34,28,96,88,64,29.91,29.82,29.68,10,5,1,15,7,17,0.34,7,Rain,42
2013-4-8,42,40,36,42,40,35,98,96,91,30.01,29.79,29.65,10,2,0,18,5,25,0.02,8,Fog-Rain,11
2013-4-9,35,30,24,35,27,22,97,91,82,30.14,30.05,29.97,10,6,0,23,17,30,0.00,8,Snow-Thunderstorm,4
2013-4-10,31,30,28,31,28,25,96,92,80,30.12,30.00,29.86,10,5,1,16,8,,0.14,8,Snow,44
2013-4-11,32,30,28,31,29,27,100,96,91,29.86,29.69,29.64,5,2,0,15,5,18,0.85,8,Rain-Snow,41
2013-4-12,30,28,26,28,25,23,100,88,80,29.89,29.79,29.70,10,9,2,17,12,22,0.00,8,,323
2013-4-13,33,28,24,27,24,23,93,79,65,29.92,29.88,29.85,10,10,4,12,5,16,0.00,7,,301
2013-4-14,35,32,28,34,29,25,100,90,75,29.85,29.55,29.37,10,7,1,30,17,38,0.00,7,,107
2013-4-15,37,34,30,28,26,23,87,76,65,30.03,29.72,29.46,10,10,10,32,20,43,0.00,6,,255
2013-4-16,33,30,26,28,25,23,87,79,70,30.30,30.20,30.02,10,10,10,13,3,,0.00,4,,314
2013-4-17,36,33,30,32,30,28,99,91,80,30.30,30.13,29.95,10,7,0,16,5,17,0.00,8,Rain-Snow-Thunderstorm,12
2013-4-18,31,30,28,31,29,27,97,95,92,29.94,29.77,29.68,10,2,0,24,18,31,0.03,8,Snow,349
2013-4-19,32,27,22,26,21,16,94,77,65,30.05,29.83,29.68,10,8,2,24,20,34,0.01,1,Snow,321
2013-4-20,34,25,16,31,20,11,96,75,61,30.25,30.20,30.11,10,9,1,12,5,,0.00,3,Snow,306
2013-4-21,45,38,32,38,33,28,95,83,71,30.20,30.08,29.99,10,10,5,20,9,28,0.12,7,Rain,202
2013-4-22,33,30,27,31,28,24,95,92,87,30.25,30.18,30.14,10,6,0,22,11,28,0.00,8,Snow,357
2013-4-23,32,26,20,24,19,16,89,75,56,30.26,30.19,30.09,10,10,10,17,13,22,0.01,1,,320
2013-4-24,40,32,24,32,25,19,93,75,58,30.09,30.01,29.94,10,10,2,22,12,30,0.00,2,Rain,252
2013-4-25,51,36,21,37,26,17,83,68,54,30.20,30.09,29.92,10,10,10,16,6,23,0.00,0,,206
2013-4-26,64,53,42,46,37,33,72,58,31,30.16,30.03,29.90,10,10,10,22,13,29,0.00,0,,251
2013-4-27,71,54,39,40,34,29,75,47,22,30.16,30.03,29.86,10,10,10,16,2,17,0.00,0,,206
2013-4-28,77,64,51,50,45,39,78,57,29,29.86,29.76,29.69,10,10,7,26,17,32,0.03,1,Rain,236
2013-4-29,74,56,38,51,39,31,77,55,32,29.87,29.72,29.46,10,10,10,14,6,20,0.03,1,Thunderstorm,161
2013-4-30,66,59,52,53,39,26,72,49,23,30.00,29.67,29.37,10,10,10,24,15,32,0.03,2,,297